createdAt,value
2022-10-08T00:00:46.240Z,97.90
2022-10-08T00:01:46.255Z,97.80
2022-10-08T00:02:46.493Z,97.80
2022-10-08T00:03:46.536Z,97.80
2022-10-08T00:04:46.186Z,97.80
2022-10-08T00:05:46.160Z,97.80
2022-10-08T00:06:46.175Z,97.70
2022-10-08T00:07:46.129Z,97.70
2022-10-08T00:08:46.559Z,97.70
2022-10-08T00:09:46.110Z,97.80
2022-10-08T00:10:46.099Z,97.80
2022-10-08T00:11:46.081Z,97.75
2022-10-08T00:12:46.347Z,97.75
2022-10-08T00:13:46.368Z,97.75
2022-10-08T00:14:46.046Z,97.75
2022-10-08T00:15:46.028Z,97.75
2022-10-08T00:16:46.020Z,97.75
2022-10-08T00:17:46.004Z,97.75
2022-10-08T00:18:46.348Z,97.65
2022-10-08T00:19:45.985Z,97.65
2022-10-08T00:20:45.969Z,97.65
2022-10-08T00:21:45.958Z,97.65
2022-10-08T00:22:46.147Z,97.65
2022-10-08T00:23:46.245Z,97.65
2022-10-08T00:24:45.920Z,97.65
2022-10-08T00:25:45.915Z,97.65
2022-10-08T00:26:45.883Z,97.65
2022-10-08T00:27:45.865Z,97.65
2022-10-08T00:28:46.279Z,97.65
2022-10-08T00:29:45.868Z,97.55
2022-10-08T00:30:45.838Z,97.55
2022-10-08T00:31:45.989Z,97.55
2022-10-08T00:32:46.097Z,97.55
2022-10-08T00:33:45.793Z,97.55
2022-10-08T00:34:46.082Z,97.55
2022-10-08T00:35:45.764Z,97.55
2022-10-08T00:36:45.743Z,97.55
2022-10-08T00:37:45.731Z,97.55
2022-10-08T00:38:45.730Z,97.55
2022-10-08T00:39:46.052Z,97.65
2022-10-08T00:40:45.692Z,97.70
2022-10-08T00:41:45.680Z,97.70
2022-10-08T00:42:45.917Z,97.70
2022-10-08T00:43:45.651Z,97.70
2022-10-08T00:44:46.092Z,97.55
2022-10-08T00:45:45.687Z,97.60
2022-10-08T00:46:45.623Z,97.60
2022-10-08T00:47:45.615Z,97.60
2022-10-08T00:48:45.590Z,97.60
2022-10-08T00:49:45.884Z,97.60
2022-10-08T00:50:45.569Z,97.60
2022-10-08T00:51:45.539Z,97.60
2022-10-08T00:52:45.896Z,97.60
2022-10-08T00:53:45.520Z,97.60
2022-10-08T00:54:46.116Z,97.60
2022-10-08T00:55:45.489Z,97.60
2022-10-08T00:56:45.499Z,97.64
2022-10-08T00:57:45.462Z,97.64
2022-10-08T00:58:45.771Z,97.64
2022-10-08T00:59:45.445Z,97.64
2022-10-08T01:00:45.440Z,97.64
2022-10-08T01:01:45.466Z,97.74
2022-10-08T01:02:45.678Z,97.74
2022-10-08T01:03:45.724Z,97.74
2022-10-08T01:04:45.474Z,97.85
2022-10-08T01:05:45.372Z,97.85
2022-10-08T01:06:45.354Z,97.95
2022-10-08T01:07:45.327Z,97.95
2022-10-08T01:08:45.321Z,97.95
2022-10-08T01:09:45.610Z,97.90
2022-10-08T01:10:45.306Z,98.00
2022-10-08T01:11:45.275Z,98.00
2022-10-08T01:12:45.586Z,98.00
2022-10-08T01:13:45.264Z,98.00
2022-10-08T01:14:45.675Z,98.00
2022-10-08T01:15:45.222Z,98.11
2022-10-08T01:16:45.285Z,98.11
2022-10-08T01:17:45.195Z,98.11
2022-10-08T01:18:45.195Z,98.15
2022-10-08T01:19:45.406Z,98.15
2022-10-08T01:20:45.166Z,98.15
2022-10-08T01:21:45.143Z,98.15
2022-10-08T01:22:45.386Z,98.15
2022-10-08T01:23:45.124Z,98.15
2022-10-08T01:24:45.414Z,98.21
2022-10-08T01:25:45.092Z,98.21
2022-10-08T01:26:45.092Z,98.21
2022-10-08T01:27:45.070Z,98.21
2022-10-08T01:28:45.111Z,98.21
2022-10-08T01:29:45.476Z,98.31
2022-10-08T01:30:45.032Z,98.31
2022-10-08T01:31:45.068Z,98.31
2022-10-08T01:32:45.211Z,98.31
2022-10-08T01:33:44.983Z,98.31
2022-10-08T01:34:45.304Z,98.27
2022-10-08T01:35:44.971Z,98.27
2022-10-08T01:36:44.958Z,98.27
2022-10-08T01:37:44.938Z,98.27
2022-10-08T01:38:44.922Z,98.27
2022-10-08T01:39:45.339Z,98.27
2022-10-08T01:40:44.905Z,98.27
2022-10-08T01:41:44.877Z,98.27
2022-10-08T01:42:45.203Z,98.27
2022-10-08T01:43:44.859Z,98.27
2022-10-08T01:44:45.209Z,98.27
2022-10-08T01:45:44.989Z,98.27
2022-10-08T01:46:44.817Z,98.27
2022-10-08T01:47:44.824Z,98.27
2022-10-08T01:48:44.808Z,98.27
2022-10-08T01:49:45.215Z,98.16
2022-10-08T01:50:44.768Z,98.16
2022-10-08T01:51:44.746Z,98.16
2022-10-08T01:52:44.958Z,98.16
2022-10-08T01:53:44.726Z,98.16
2022-10-08T01:54:45.137Z,98.06
2022-10-08T01:55:44.697Z,98.06
2022-10-08T01:56:44.692Z,98.06
2022-10-08T01:57:44.671Z,98.06
2022-10-08T01:58:44.675Z,98.16
2022-10-08T01:59:45.017Z,98.16
2022-10-08T02:00:44.683Z,98.16
2022-10-08T02:01:44.671Z,98.16
2022-10-08T02:02:44.878Z,98.16
2022-10-08T02:03:44.584Z,98.16
2022-10-08T02:04:51.994Z,98.16
2022-10-08T02:05:52.571Z,98.16
2022-10-08T02:06:51.567Z,98.11
2022-10-08T02:07:51.544Z,98.16
2022-10-08T02:08:51.531Z,98.06
2022-10-08T02:09:51.910Z,98.06
2022-10-08T02:10:52.525Z,97.96
2022-10-08T02:11:51.488Z,97.96
2022-10-08T02:12:51.478Z,97.96
2022-10-08T02:13:51.467Z,97.86
2022-10-08T02:14:51.781Z,97.86
2022-10-08T02:15:51.430Z,97.86
2022-10-08T02:16:51.481Z,97.86
2022-10-08T02:17:51.409Z,97.90
2022-10-08T02:18:51.393Z,97.80
2022-10-08T02:19:51.819Z,97.90
2022-10-08T02:20:44.371Z,97.90
2022-10-08T02:21:44.351Z,97.90
2022-10-08T02:22:44.463Z,97.86
2022-10-08T02:23:51.338Z,97.90
2022-10-08T02:24:44.691Z,97.86
2022-10-08T02:25:44.309Z,97.90
2022-10-08T02:26:51.298Z,97.90
2022-10-08T02:27:44.282Z,97.86
2022-10-08T02:28:51.263Z,97.75
2022-10-08T02:29:44.254Z,97.75
2022-10-08T02:30:44.584Z,97.75
2022-10-08T02:31:44.260Z,97.75
2022-10-08T02:32:44.354Z,97.75
2022-10-08T02:33:44.212Z,97.80
2022-10-08T02:34:44.626Z,97.75
2022-10-08T02:35:44.182Z,97.90
2022-10-08T02:36:44.171Z,97.86
2022-10-08T02:37:44.152Z,97.96
2022-10-08T02:38:44.132Z,98.06
2022-10-08T02:39:44.123Z,98.06
2022-10-08T02:40:44.521Z,98.06
2022-10-08T02:41:44.091Z,98.06
2022-10-08T02:42:44.296Z,98.06
2022-10-08T02:43:44.072Z,98.06
2022-10-08T02:44:44.057Z,98.06
2022-10-08T02:45:44.519Z,98.06
2022-10-08T02:46:44.029Z,98.16
2022-10-08T02:47:44.041Z,98.11
2022-10-08T02:48:44.021Z,98.11
2022-10-08T02:49:43.990Z,98.11
2022-10-08T02:50:44.399Z,98.11
2022-10-08T02:51:43.968Z,98.02
2022-10-08T02:52:44.319Z,98.02
2022-10-08T02:53:43.951Z,98.06
2022-10-08T02:54:43.940Z,98.06
2022-10-08T02:55:44.328Z,98.06
2022-10-08T02:56:43.907Z,98.06
2022-10-08T02:57:43.888Z,98.06
2022-10-08T02:58:43.871Z,98.02
2022-10-08T02:59:43.885Z,97.91
2022-10-08T03:00:44.218Z,97.91
2022-10-08T03:01:43.827Z,97.91
2022-10-08T03:02:43.948Z,97.91
2022-10-08T03:03:43.817Z,97.91
2022-10-08T03:04:44.233Z,97.86
2022-10-08T03:05:43.795Z,97.86
2022-10-08T03:06:43.766Z,97.86
2022-10-08T03:07:43.746Z,97.86
2022-10-08T03:08:43.748Z,97.86
2022-10-08T03:09:43.741Z,97.81
2022-10-08T03:10:44.035Z,97.81
2022-10-08T03:11:43.703Z,97.81
2022-10-08T03:12:43.817Z,97.81
2022-10-08T03:13:43.687Z,97.81
2022-10-08T03:14:44.016Z,97.81
2022-10-08T03:15:43.663Z,97.81
2022-10-08T03:16:43.744Z,97.81
2022-10-08T03:17:43.637Z,97.81
2022-10-08T03:18:43.610Z,97.91
2022-10-08T03:19:43.604Z,97.91
2022-10-08T03:20:43.917Z,97.91
2022-10-08T03:21:43.574Z,97.91
2022-10-08T03:22:43.580Z,97.81
2022-10-08T03:23:43.545Z,97.81
2022-10-08T03:24:43.764Z,97.81
2022-10-08T03:25:43.521Z,97.81
2022-10-08T03:26:43.520Z,97.81
2022-10-08T03:27:43.492Z,97.86
2022-10-08T03:28:43.515Z,97.86
2022-10-08T03:29:43.694Z,97.86
2022-10-08T03:30:43.495Z,97.86
2022-10-08T03:31:43.450Z,97.86
2022-10-08T03:32:43.534Z,97.86
2022-10-08T03:33:43.427Z,97.86
2022-10-08T03:34:43.833Z,97.86
2022-10-08T03:35:43.403Z,97.86
2022-10-08T03:36:43.381Z,97.86
2022-10-08T03:37:43.371Z,97.86
2022-10-08T03:38:43.347Z,97.86
2022-10-08T03:39:43.341Z,97.86
2022-10-08T03:40:43.752Z,97.75
2022-10-08T03:41:43.330Z,97.90
2022-10-08T03:42:43.297Z,97.80
2022-10-08T03:43:43.288Z,97.80
2022-10-08T03:44:43.709Z,97.90
2022-10-08T03:45:43.312Z,97.90
2022-10-08T03:46:43.248Z,98.00
2022-10-08T03:47:43.237Z,98.00
2022-10-08T03:48:43.228Z,98.11
2022-10-08T03:49:43.639Z,98.11
2022-10-08T03:50:43.206Z,98.16
2022-10-08T03:51:43.185Z,98.16
2022-10-08T03:52:43.178Z,98.16
2022-10-08T03:53:43.158Z,98.16
2022-10-08T03:54:43.516Z,98.16
2022-10-08T03:55:43.129Z,98.16
2022-10-08T03:56:43.134Z,98.16
2022-10-08T03:57:43.104Z,98.16
2022-10-08T03:58:51.127Z,98.16
2022-10-08T03:59:51.673Z,98.16
2022-10-08T04:00:43.055Z,98.16
2022-10-08T04:01:43.164Z,98.16
2022-10-08T04:02:43.087Z,98.16
2022-10-08T04:03:43.025Z,98.16
2022-10-08T04:04:43.304Z,98.27
2022-10-08T04:05:42.994Z,98.27
2022-10-08T04:06:42.991Z,98.27
2022-10-08T04:07:42.965Z,98.27
2022-10-08T04:08:42.971Z,98.27
2022-10-08T04:09:43.373Z,98.16
2022-10-08T04:10:42.933Z,98.27
2022-10-08T04:11:42.939Z,98.27
2022-10-08T04:12:42.931Z,98.27
2022-10-08T04:13:42.909Z,98.27
2022-10-08T04:14:43.243Z,98.27
2022-10-08T04:15:42.930Z,98.27
2022-10-08T04:16:42.862Z,98.27
2022-10-08T04:17:42.863Z,98.27
2022-10-08T04:18:42.842Z,98.27
2022-10-08T04:19:43.151Z,98.27
2022-10-08T04:20:42.821Z,98.16
2022-10-08T04:21:42.802Z,98.16
2022-10-08T04:22:42.786Z,98.16
2022-10-08T04:23:42.774Z,98.16
2022-10-08T04:24:43.178Z,98.16
2022-10-08T04:25:42.748Z,98.16
2022-10-08T04:26:42.736Z,98.16
2022-10-08T04:27:42.731Z,98.16
2022-10-08T04:28:42.783Z,98.16
2022-10-08T04:29:43.001Z,98.11
2022-10-08T04:30:42.731Z,98.11
2022-10-08T04:31:42.675Z,98.11
2022-10-08T04:32:42.679Z,98.11
2022-10-08T04:33:42.638Z,98.22
2022-10-08T04:34:43.105Z,98.11
2022-10-08T04:35:42.621Z,98.11
2022-10-08T04:36:42.619Z,98.11
2022-10-08T04:37:42.598Z,98.11
2022-10-08T04:38:42.569Z,98.11
2022-10-08T04:39:42.585Z,98.22
2022-10-08T04:40:43.184Z,98.11
2022-10-08T04:41:42.541Z,98.11
2022-10-08T04:42:42.516Z,98.11
2022-10-08T04:43:42.511Z,98.11
2022-10-08T04:44:42.499Z,98.11
2022-10-08T04:45:43.131Z,98.02
2022-10-08T04:46:42.530Z,98.02
2022-10-08T04:47:42.455Z,98.02
2022-10-08T04:48:42.449Z,97.91
2022-10-08T04:49:42.436Z,97.91
2022-10-08T04:50:42.836Z,97.81
2022-10-08T04:51:42.405Z,97.81
2022-10-08T04:52:42.394Z,97.71
2022-10-08T04:53:42.382Z,97.71
2022-10-08T04:54:42.894Z,97.71
2022-10-08T04:55:42.361Z,97.71
2022-10-08T04:56:42.336Z,97.71
2022-10-08T04:57:42.325Z,97.71
2022-10-08T04:58:42.320Z,97.71
2022-10-08T05:00:05.711Z,97.61
2022-10-08T05:00:43.563Z,97.61
2022-10-08T05:01:42.306Z,97.61
2022-10-08T05:02:42.320Z,97.56
2022-10-08T05:03:42.254Z,97.56
2022-10-08T05:04:42.833Z,97.61
2022-10-08T05:05:42.223Z,97.56
2022-10-08T05:06:42.211Z,97.56
2022-10-08T05:07:42.191Z,97.56
2022-10-08T05:08:42.181Z,97.56
2022-10-08T05:09:42.665Z,97.61
2022-10-08T05:10:42.164Z,97.56
2022-10-08T05:11:42.141Z,97.56
2022-10-08T05:12:42.122Z,97.66
2022-10-08T05:13:42.125Z,97.66
2022-10-08T05:14:42.580Z,97.66
2022-10-08T05:15:42.115Z,97.66
2022-10-08T05:16:42.079Z,97.66
2022-10-08T05:17:42.100Z,97.66
2022-10-08T05:18:42.062Z,97.66
2022-10-08T05:19:42.479Z,97.66
2022-10-08T05:20:42.031Z,97.66
2022-10-08T05:21:42.208Z,97.66
2022-10-08T05:22:42.006Z,97.66
2022-10-08T05:23:41.988Z,97.77
2022-10-08T05:24:42.382Z,97.66
2022-10-08T05:25:41.972Z,97.66
2022-10-08T05:26:57.383Z,97.66
2022-10-08T05:27:42.938Z,97.66
2022-10-08T05:28:41.992Z,97.62
2022-10-08T05:29:42.360Z,97.62
2022-10-08T05:30:41.897Z,97.56
2022-10-08T05:31:41.877Z,97.56
2022-10-08T05:32:41.908Z,97.56
2022-10-08T05:33:41.866Z,97.52
2022-10-08T05:34:42.193Z,97.52
2022-10-08T05:35:41.895Z,97.46
2022-10-08T05:36:41.938Z,97.46
2022-10-08T05:37:41.804Z,97.46
2022-10-08T05:38:41.784Z,97.36
2022-10-08T05:39:42.216Z,97.36
2022-10-08T05:40:41.779Z,97.36
2022-10-08T05:41:41.754Z,97.36
2022-10-08T05:42:41.737Z,97.36
2022-10-08T05:43:41.722Z,97.36
2022-10-08T05:44:45.299Z,97.36
2022-10-08T05:45:41.696Z,97.36
2022-10-08T05:46:41.792Z,97.36
2022-10-08T05:47:41.676Z,97.31
2022-10-08T05:48:41.653Z,97.31
2022-10-08T05:49:41.642Z,97.41
2022-10-08T05:50:41.994Z,97.41
2022-10-08T05:51:41.624Z,97.41
2022-10-08T05:52:41.603Z,97.41
2022-10-08T05:53:41.600Z,97.41
2022-10-08T05:54:42.005Z,97.41
2022-10-08T05:55:41.603Z,97.27
2022-10-08T05:56:41.539Z,97.16
2022-10-08T05:57:41.534Z,97.16
2022-10-08T05:58:41.530Z,97.06
2022-10-08T05:59:41.881Z,97.06
2022-10-08T06:00:41.492Z,97.06
2022-10-08T06:01:41.487Z,97.06
2022-10-08T06:02:41.512Z,97.16
2022-10-08T06:03:41.439Z,97.02
2022-10-08T06:04:41.941Z,97.02
2022-10-08T06:05:41.419Z,97.02
2022-10-08T06:06:41.400Z,96.92
2022-10-08T06:07:41.379Z,96.92
2022-10-08T06:08:41.399Z,96.92
2022-10-08T06:09:41.349Z,96.87
2022-10-08T06:10:41.819Z,96.77
2022-10-08T06:11:41.339Z,96.77
2022-10-08T06:12:41.338Z,96.67
2022-10-08T06:13:41.308Z,96.67
2022-10-08T06:14:41.296Z,96.56
2022-10-08T06:15:41.588Z,96.46
2022-10-08T06:16:41.326Z,96.46
2022-10-08T06:17:48.286Z,96.36
2022-10-08T06:18:41.242Z,96.26
2022-10-08T06:19:41.221Z,96.15
2022-10-08T06:20:41.650Z,96.15
2022-10-08T06:21:41.195Z,96.15
2022-10-08T06:22:48.745Z,96.06
2022-10-08T06:23:48.182Z,95.95
2022-10-08T06:24:41.154Z,95.95
2022-10-08T06:25:41.449Z,95.85
2022-10-08T06:26:41.126Z,95.75
2022-10-08T06:27:41.118Z,95.65
2022-10-08T06:28:49.102Z,95.65
2022-10-08T06:29:41.089Z,95.65
2022-10-08T06:30:48.553Z,95.65
2022-10-08T06:31:41.092Z,95.65
2022-10-08T06:32:48.353Z,95.61
2022-10-08T06:33:41.044Z,95.61
2022-10-08T06:34:41.014Z,95.61
2022-10-08T06:35:41.333Z,95.50
2022-10-08T06:36:49.057Z,95.30
2022-10-08T06:37:48.176Z,95.20
2022-10-08T06:38:40.976Z,95.20
2022-10-08T06:39:44.896Z,95.09
2022-10-08T06:40:42.406Z,95.09
2022-10-08T06:41:47.921Z,95.09
2022-10-08T06:42:40.911Z,95.09
2022-10-08T06:43:40.909Z,95.09
2022-10-08T06:44:40.890Z,95.09
2022-10-08T06:45:41.230Z,95.09
2022-10-08T06:46:40.915Z,95.09
2022-10-08T06:47:40.852Z,95.00
2022-10-08T06:48:40.848Z,95.09
2022-10-08T06:49:40.822Z,95.00
2022-10-08T06:50:41.190Z,95.00
2022-10-08T06:51:41.196Z,95.00
2022-10-08T06:52:42.099Z,95.09
2022-10-08T06:53:41.040Z,95.05
2022-10-08T06:54:40.849Z,95.05
2022-10-08T06:55:41.171Z,95.05
2022-10-08T06:56:40.759Z,95.05
2022-10-08T06:57:41.157Z,94.95
2022-10-08T06:58:40.996Z,94.85
2022-10-08T06:59:40.962Z,94.80
2022-10-08T07:00:40.821Z,94.70
2022-10-08T07:01:41.309Z,94.50
2022-10-08T07:02:40.635Z,94.35
2022-10-08T07:03:40.634Z,94.00
2022-10-08T07:04:40.996Z,93.90
2022-10-08T07:05:40.805Z,93.90
2022-10-08T07:06:41.248Z,93.65
2022-10-08T07:07:40.580Z,93.55
2022-10-08T07:08:40.593Z,93.35
2022-10-08T07:09:40.635Z,93.15
2022-10-08T07:10:41.004Z,93.15
2022-10-08T07:11:40.517Z,93.15
2022-10-08T07:12:40.587Z,93.00
2022-10-08T07:13:40.788Z,92.80
2022-10-08T07:14:40.524Z,92.70
2022-10-08T07:15:40.505Z,92.60
2022-10-08T07:16:40.589Z,92.55
2022-10-08T07:17:40.435Z,92.21
2022-10-08T07:18:40.560Z,91.80
2022-10-08T07:19:40.406Z,91.60
2022-10-08T07:20:41.064Z,91.39
2022-10-08T07:21:40.413Z,91.39
2022-10-08T07:22:40.389Z,91.50
2022-10-08T07:23:40.421Z,91.50
2022-10-08T07:24:40.353Z,91.55
2022-10-08T07:25:40.354Z,91.25
2022-10-08T07:26:40.686Z,91.05
2022-10-08T07:27:44.745Z,90.84
2022-10-08T07:28:40.366Z,91.05
2022-10-08T07:29:40.282Z,90.80
2022-10-08T07:30:40.282Z,90.60
2022-10-08T07:31:40.635Z,90.60
2022-10-08T07:32:40.244Z,90.40
2022-10-08T07:33:40.233Z,90.20
2022-10-08T07:34:40.213Z,90.16
2022-10-08T07:35:40.213Z,90.20
2022-10-08T07:36:40.435Z,90.50
2022-10-08T07:37:40.179Z,90.50
2022-10-08T07:38:40.175Z,90.16
2022-10-08T07:39:40.212Z,89.85
2022-10-08T07:40:40.140Z,89.40
2022-10-08T07:41:40.500Z,89.16
2022-10-08T07:42:40.116Z,88.81
2022-10-08T07:43:40.091Z,88.06
2022-10-08T07:44:40.098Z,87.52
2022-10-08T07:45:40.130Z,86.71
2022-10-08T07:46:40.090Z,86.81
2022-10-08T07:47:40.050Z,87.46
2022-10-08T07:48:40.040Z,87.66
2022-10-08T07:49:40.035Z,87.66
2022-10-08T07:50:40.011Z,87.46
2022-10-08T07:51:40.378Z,87.56
2022-10-08T07:52:39.988Z,87.66
2022-10-08T07:53:40.003Z,87.70
2022-10-08T07:54:39.964Z,87.60
2022-10-08T07:55:39.946Z,86.99
2022-10-08T07:56:40.367Z,87.30
2022-10-08T07:57:39.920Z,87.40
2022-10-08T07:58:39.941Z,87.70
2022-10-08T07:59:39.949Z,87.50
2022-10-08T08:00:40.009Z,87.10
2022-10-08T08:01:40.639Z,86.79
2022-10-08T08:02:39.848Z,87.34
2022-10-08T08:03:39.840Z,87.68
2022-10-08T08:04:39.838Z,88.39
2022-10-08T08:05:39.818Z,88.49
2022-10-08T08:06:40.198Z,88.39
2022-10-08T08:07:39.778Z,88.29
2022-10-08T08:08:39.802Z,88.29
2022-10-08T08:09:39.758Z,88.75
2022-10-08T08:10:39.738Z,88.21
2022-10-08T08:11:40.068Z,87.90
2022-10-08T08:12:39.755Z,87.56
2022-10-08T08:13:39.713Z,87.26
2022-10-08T08:14:39.699Z,86.41
2022-10-08T08:15:39.677Z,85.80
2022-10-08T08:16:39.857Z,84.89
2022-10-08T08:17:39.693Z,85.40
2022-10-08T08:18:39.643Z,85.60
2022-10-08T08:19:39.629Z,85.76
2022-10-08T08:20:39.633Z,85.46
2022-10-08T08:21:39.628Z,84.61
2022-10-08T08:22:39.597Z,82.79
2022-10-08T08:23:39.577Z,83.30
2022-10-08T08:24:39.576Z,82.96
2022-10-08T08:25:39.577Z,82.01
2022-10-08T08:26:39.576Z,81.57
2022-10-08T08:27:39.556Z,79.16
2022-10-08T08:28:39.620Z,78.65
2022-10-08T08:29:39.513Z,78.96
2022-10-08T08:30:39.487Z,77.68
2022-10-08T08:31:39.580Z,78.79
2022-10-08T08:32:39.465Z,79.39
2022-10-08T08:33:39.455Z,80.20
2022-10-08T08:34:39.445Z,80.30
2022-10-08T08:35:39.596Z,80.00
2022-10-08T08:36:39.716Z,80.00
2022-10-08T08:37:39.385Z,78.92
2022-10-08T08:38:39.420Z,78.69
2022-10-08T08:39:39.385Z,78.08
2022-10-08T08:40:39.375Z,76.87
2022-10-08T08:41:39.696Z,74.12
2022-10-08T08:42:39.321Z,72.31
2022-10-08T08:43:39.328Z,72.91
2022-10-08T08:44:39.286Z,72.31
2022-10-08T08:45:46.934Z,71.40
2022-10-08T08:46:40.800Z,71.40
2022-10-08T08:47:39.278Z,71.40
2022-10-08T08:48:39.255Z,71.03
2022-10-08T08:49:39.236Z,72.24
2022-10-08T08:50:39.217Z,71.73
2022-10-08T08:51:39.204Z,70.73
2022-10-08T08:52:39.606Z,71.06
2022-10-08T08:53:39.174Z,72.07
2022-10-08T08:54:39.178Z,73.05
2022-10-08T08:55:39.146Z,71.53
2022-10-08T08:56:39.144Z,71.73
2022-10-08T08:57:39.495Z,70.93
2022-10-08T08:58:39.109Z,71.47
2022-10-08T08:59:39.088Z,71.87
2022-10-08T09:00:39.088Z,72.27
2022-10-08T09:01:39.210Z,72.07
2022-10-08T09:02:39.064Z,71.67
2022-10-08T09:03:39.055Z,71.67
2022-10-08T09:04:44.282Z,72.31
2022-10-08T09:05:40.202Z,72.20
2022-10-08T09:06:39.312Z,73.32
2022-10-08T09:07:38.983Z,73.22
2022-10-08T09:08:38.985Z,73.52
2022-10-08T09:09:38.977Z,73.28
2022-10-08T09:10:38.965Z,73.58
2022-10-08T09:11:38.934Z,73.85
2022-10-08T09:12:38.954Z,72.04
2022-10-08T09:13:38.924Z,72.04
2022-10-08T09:14:38.903Z,72.14
2022-10-08T09:15:38.898Z,71.50
2022-10-08T09:16:38.979Z,71.44
2022-10-08T09:17:38.887Z,72.54
2022-10-08T09:18:38.853Z,73.01
2022-10-08T09:19:38.840Z,72.61
2022-10-08T09:20:40.360Z,72.34
2022-10-08T09:21:38.814Z,71.70
2022-10-08T09:22:39.094Z,71.20
2022-10-08T09:23:38.794Z,72.34
2022-10-08T09:24:38.815Z,72.64
2022-10-08T09:25:38.778Z,72.47
2022-10-08T09:26:38.743Z,73.28
2022-10-08T09:27:39.036Z,73.08
2022-10-08T09:28:38.786Z,73.62
2022-10-08T09:29:38.705Z,74.63
2022-10-08T09:30:38.755Z,74.93
2022-10-08T09:31:38.723Z,73.92
2022-10-08T09:32:39.084Z,74.43
2022-10-08T09:33:38.662Z,74.29
2022-10-08T09:34:38.648Z,73.58
2022-10-08T09:35:38.635Z,73.08
2022-10-08T09:36:38.615Z,72.64
2022-10-08T09:37:38.970Z,72.24
2022-10-08T09:38:38.591Z,70.73
2022-10-08T09:39:38.592Z,69.79
2022-10-08T09:40:38.565Z,71.03
2022-10-08T09:41:38.552Z,70.42
2022-10-08T09:42:38.836Z,70.79
2022-10-08T09:43:38.536Z,70.19
2022-10-08T09:44:38.512Z,69.62
2022-10-08T09:45:38.530Z,70.12
2022-10-08T09:46:38.482Z,69.55
2022-10-08T09:47:38.893Z,69.99
2022-10-08T09:48:38.493Z,69.89
2022-10-08T09:49:38.450Z,70.59
2022-10-08T09:50:38.489Z,69.95
2022-10-08T09:51:38.413Z,69.65
2022-10-08T09:52:38.732Z,71.57
2022-10-08T09:53:38.384Z,70.26
2022-10-08T09:54:38.404Z,68.65
2022-10-08T09:55:38.363Z,68.71
2022-10-08T09:56:38.375Z,69.29
2022-10-08T09:57:43.598Z,67.64
2022-10-08T09:58:39.335Z,66.83
2022-10-08T09:59:38.321Z,66.91
2022-10-08T10:00:38.301Z,66.30
2022-10-08T10:01:38.331Z,65.47
2022-10-08T10:02:38.701Z,65.47
2022-10-08T10:03:38.311Z,65.97
2022-10-08T10:04:38.253Z,66.17
2022-10-08T10:05:38.245Z,65.94
2022-10-08T10:06:38.221Z,64.93
2022-10-08T10:07:38.549Z,64.13
2022-10-08T10:08:38.216Z,65.16
2022-10-08T10:09:38.171Z,64.96
2022-10-08T10:10:38.162Z,65.67
2022-10-08T10:11:38.171Z,64.76
2022-10-08T10:12:38.565Z,64.29
2022-10-08T10:13:38.141Z,65.19
2022-10-08T10:14:38.125Z,64.89
2022-10-08T10:15:38.122Z,65.22
2022-10-08T10:16:38.129Z,65.33
2022-10-08T10:17:38.083Z,65.76
2022-10-08T10:18:38.462Z,65.79
2022-10-08T10:19:38.051Z,65.89
2022-10-08T10:20:38.032Z,66.30
2022-10-08T10:21:38.021Z,66.19
2022-10-08T10:22:38.436Z,65.39
2022-10-08T10:23:37.991Z,65.82
2022-10-08T10:24:37.995Z,65.92
2022-10-08T10:25:37.961Z,66.22
2022-10-08T10:26:37.951Z,65.82
2022-10-08T10:27:37.953Z,65.82
2022-10-08T10:28:38.280Z,65.42
2022-10-08T10:29:37.934Z,66.19
2022-10-08T10:30:37.964Z,65.32
2022-10-08T10:31:37.892Z,65.89
2022-10-08T10:32:37.883Z,66.39
2022-10-08T10:33:38.301Z,65.56
2022-10-08T10:34:37.851Z,65.73
2022-10-08T10:35:37.833Z,64.32
2022-10-08T10:36:37.831Z,64.79
2022-10-08T10:37:37.801Z,63.89
2022-10-08T10:38:42.791Z,63.42
2022-10-08T10:39:38.813Z,63.71
2022-10-08T10:40:37.761Z,63.45
2022-10-08T10:41:37.753Z,64.15
2022-10-08T10:42:37.741Z,64.12
2022-10-08T10:43:38.160Z,64.02
2022-10-08T10:44:37.720Z,63.71
2022-10-08T10:45:37.702Z,63.79
2022-10-08T10:46:37.730Z,62.65
2022-10-08T10:47:37.679Z,62.75
2022-10-08T10:48:37.955Z,62.65
2022-10-08T10:49:37.650Z,62.85
2022-10-08T10:50:37.641Z,62.75
2022-10-08T10:51:37.620Z,61.94
2022-10-08T10:52:38.017Z,62.07
2022-10-08T10:53:37.594Z,61.98
2022-10-08T10:54:37.581Z,61.67
2022-10-08T10:55:37.575Z,62.38
2022-10-08T10:56:37.549Z,61.90
2022-10-08T10:57:37.539Z,62.34
2022-10-08T10:58:37.880Z,62.57
2022-10-08T10:59:37.517Z,63.07
2022-10-08T11:00:37.497Z,63.17
2022-10-08T11:01:37.530Z,63.78
2022-10-08T11:02:37.502Z,63.78
2022-10-08T11:03:37.882Z,64.69
2022-10-08T11:04:37.438Z,63.57
2022-10-08T11:05:37.439Z,64.01
2022-10-08T11:06:37.421Z,63.90
2022-10-08T11:07:37.410Z,63.90
2022-10-08T11:08:37.797Z,64.75
2022-10-08T11:09:37.389Z,64.04
2022-10-08T11:10:37.369Z,64.44
2022-10-08T11:11:37.358Z,64.37
2022-10-08T11:12:37.340Z,64.84
2022-10-08T11:13:37.679Z,66.05
2022-10-08T11:14:37.315Z,65.25
2022-10-08T11:15:37.380Z,64.41
2022-10-08T11:16:37.289Z,64.11
2022-10-08T11:17:37.281Z,63.50
2022-10-08T11:18:37.628Z,62.90
2022-10-08T11:19:37.255Z,63.40
2022-10-08T11:20:37.239Z,63.67
2022-10-08T11:21:37.227Z,62.80
2022-10-08T11:22:37.205Z,63.50
2022-10-08T11:23:37.617Z,63.17
2022-10-08T11:24:37.180Z,63.57
2022-10-08T11:25:49.993Z,62.46
2022-10-08T11:26:38.164Z,62.37
2022-10-08T11:27:37.145Z,62.06
2022-10-08T11:28:37.518Z,62.16
2022-10-08T11:29:37.131Z,62.06
2022-10-08T11:30:37.156Z,62.87
2022-10-08T11:31:37.108Z,63.07
2022-10-08T11:32:37.089Z,62.70
2022-10-08T11:33:37.487Z,62.90
2022-10-08T11:34:37.057Z,63.50
2022-10-08T11:35:37.052Z,63.10
2022-10-08T11:36:37.030Z,63.30
2022-10-08T11:37:37.021Z,61.99
2022-10-08T11:38:37.027Z,62.60
2022-10-08T11:39:36.996Z,63.00
2022-10-08T11:40:36.974Z,63.47
2022-10-08T11:41:36.957Z,62.87
2022-10-08T11:42:40.728Z,63.17
2022-10-08T11:43:38.239Z,63.67
2022-10-08T11:44:36.925Z,62.46
2022-10-08T11:45:36.904Z,62.04
2022-10-08T11:46:36.958Z,62.71
2022-10-08T11:47:36.884Z,61.20
2022-10-08T11:48:36.868Z,61.40
2022-10-08T11:49:36.897Z,61.60
2022-10-08T11:50:36.848Z,62.44
2022-10-08T11:51:36.817Z,61.73
2022-10-08T11:52:36.804Z,60.63
2022-10-08T11:53:36.818Z,60.80
2022-10-08T11:54:36.804Z,61.10
2022-10-08T11:55:36.784Z,60.39
2022-10-08T11:56:36.755Z,59.86
2022-10-08T11:58:06.318Z,59.96
2022-10-08T11:58:38.144Z,58.98
2022-10-08T11:59:36.733Z,58.98
2022-10-08T12:00:36.710Z,59.69
2022-10-08T12:01:36.694Z,58.78
2022-10-08T12:02:36.790Z,58.31
2022-10-08T12:03:36.838Z,59.31
2022-10-08T12:04:36.683Z,59.52
2022-10-08T12:05:36.646Z,59.62
2022-10-08T12:06:36.625Z,59.22
2022-10-08T12:07:36.625Z,59.28
2022-10-08T12:08:36.656Z,58.51
2022-10-08T12:09:36.926Z,59.34
2022-10-08T12:10:36.594Z,59.75
2022-10-08T12:11:36.642Z,59.84
2022-10-08T12:12:36.544Z,59.64
2022-10-08T12:13:36.562Z,59.95
2022-10-08T12:14:36.864Z,59.55
2022-10-08T12:15:36.525Z,59.84
2022-10-08T12:16:36.505Z,60.25
2022-10-08T12:17:36.495Z,59.97
2022-10-08T12:18:36.495Z,59.77
2022-10-08T12:19:36.496Z,60.17
2022-10-08T12:20:36.474Z,59.77
2022-10-08T12:21:36.464Z,58.84
2022-10-08T12:22:36.444Z,59.64
2022-10-08T12:23:36.413Z,58.84
2022-10-08T12:24:36.424Z,59.37
2022-10-08T12:25:36.385Z,59.95
2022-10-08T12:26:36.366Z,58.74
2022-10-08T12:27:36.354Z,58.64
2022-10-08T12:28:36.379Z,58.14
2022-10-08T12:29:36.373Z,58.14
2022-10-08T12:30:36.332Z,58.03
2022-10-08T12:31:36.359Z,58.64
2022-10-08T12:32:36.292Z,58.81
2022-10-08T12:33:36.280Z,56.80
2022-10-08T12:34:36.552Z,57.50
2022-10-08T12:35:36.267Z,57.81
2022-10-08T12:36:36.242Z,58.21
2022-10-08T12:37:36.250Z,57.60
2022-10-08T12:38:36.221Z,57.90
2022-10-08T12:39:36.253Z,58.31
2022-10-08T12:40:36.479Z,57.30
2022-10-08T12:41:36.171Z,58.01
2022-10-08T12:42:36.163Z,58.01
2022-10-08T12:43:36.171Z,57.40
2022-10-08T12:44:36.430Z,57.60
2022-10-08T12:45:36.120Z,57.90
2022-10-08T12:46:36.202Z,57.83
2022-10-08T12:47:36.093Z,57.93
2022-10-08T12:48:36.106Z,58.16
2022-10-08T12:49:36.070Z,58.56
2022-10-08T12:50:36.105Z,59.30
2022-10-08T12:51:36.052Z,59.09
2022-10-08T12:52:36.040Z,59.09